Cumberland City, Tennessee
Current Conditions -  °F | °C
As of 7:52 AM on Monday 26 Jan 2015 (Local Time) from KCKV Reporting Station
Overcast Overcast  
Wind Chill: 21°   Ceiling: 1300
Heat Index: 32°   Visibility: 10mi
Dew Point: 28°   Wind: 16mph
Humidity: 85%   Direction: 330°NNW
Pressure: 30"   Gusts: 22mph
Location:  36.39°N, 87.64°W
Report Text: KCKV 261352Z AUTO 33014G19KT 10SM OVC013 00/M02 A3000 RMK AO2 SLP160 T00001022 $
Loading
Personal Weather Stations






























Interactive Weather Map New forecast layout! Learn more

10-Day Weather Forecast

Advertisements
Track Severe Weather on mobile